Time;durP1;ratioP1;P1;durP2;ratioP2;P2;SDS_P1;SDS_P2;PMS_P1;PMS_P2;Temp;Humidity;BMP_temperature;BMP_pressure;BME280_temperature;BME280_humidity;BME280_pressure;Samples;Min_cycle;Max_cycle;Signal;HPM_P1;HPM_P2
2023/01/30 00:01:23;;;;;;;9.73;8.87;;;;;;;;;;5053817;28;20045;-57
2023/01/30 00:03:49;;;;;;;7.30;6.60;;;;;;;;;;5054507;28;20460;-55
2023/01/30 00:06:15;;;;;;;10.30;8.83;;;;;;;;;;5054713;28;20063;-57
2023/01/30 00:08:41;;;;;;;8.90;5.47;;;;;;;;;;5053952;28;20033;-58
2023/01/30 00:11:08;;;;;;;11.27;7.00;;;;;;;;;;5053655;28;20028;-54
2023/01/30 00:13:34;;;;;;;7.00;4.83;;;;;;;;;;5054480;28;20474;-56
2023/01/30 00:16:00;;;;;;;8.97;6.17;;;;;;;;;;5054627;28;20044;-56
2023/01/30 00:18:26;;;;;;;6.97;5.03;;;;;;;;;;5053767;28;20032;-57
2023/01/30 00:20:56;;;;;;;8.67;7.03;;;;;;;;;;5053747;28;20025;-57
2023/01/30 00:23:22;;;;;;;10.43;7.00;;;;;;;;;;5054090;28;20455;-57
2023/01/30 00:25:47;;;;;;;9.40;6.63;;;;;;;;;;5054513;28;20115;-55
2023/01/30 00:28:13;;;;;;;8.37;7.20;;;;;;;;;;5053505;28;20364;-57
2023/01/30 00:30:39;;;;;;;7.67;6.93;;;;;;;;;;5053765;28;20489;-54
2023/01/30 00:33:05;;;;;;;17.23;8.70;;;;;;;;;;5053869;28;20025;-54
2023/01/30 00:35:31;;;;;;;8.80;6.47;;;;;;;;;;5053852;28;20166;-55
2023/01/30 00:37:58;;;;;;;9.83;8.10;;;;;;;;;;5053646;28;20025;-56
2023/01/30 00:40:25;;;;;;;11.50;7.10;;;;;;;;;;5053528;28;20106;-57
2023/01/30 00:48:22;;;;;;;8.97;7.23;;;;;;;;;;5053913;28;20150;-53
2023/01/30 00:50:48;;;;;;;7.90;5.97;;;;;;;;;;5053719;28;20108;-56
2023/01/30 00:53:15;;;;;;;14.07;8.60;;;;;;;;;;5053395;28;20477;-55
2023/01/30 00:55:42;;;;;;;10.27;6.10;;;;;;;;;;5054080;28;20075;-57
2023/01/30 00:58:08;;;;;;;7.20;6.40;;;;;;;;;;5053330;28;20025;-55
2023/01/30 01:00:34;;;;;;;9.10;7.00;;;;;;;;;;5053298;28;20107;-55
2023/01/30 01:03:00;;;;;;;12.27;6.37;;;;;;;;;;5053541;28;20126;-57
2023/01/30 01:05:26;;;;;;;7.30;6.57;;;;;;;;;;5057106;28;20429;-57
2023/01/30 01:07:52;;;;;;;15.30;7.50;;;;;;;;;;5058378;28;20021;-56
2023/01/30 01:10:19;;;;;;;8.67;6.93;;;;;;;;;;5057710;28;20036;-56
2023/01/30 01:12:45;;;;;;;10.70;6.30;;;;;;;;;;5057392;28;20052;-56
2023/01/30 01:15:12;;;;;;;9.50;8.67;;;;;;;;;;5057440;28;20068;-57
2023/01/30 01:17:38;;;;;;;7.57;6.90;;;;;;;;;;5058100;28;20036;-54
2023/01/30 01:20:04;;;;;;;8.60;6.97;;;;;;;;;;5057345;28;20028;-57
2023/01/30 01:22:30;;;;;;;11.00;7.50;;;;;;;;;;5057047;28;20407;-55
2023/01/30 01:24:56;;;;;;;6.60;5.57;;;;;;;;;;5057620;28;20060;-56
2023/01/30 01:27:22;;;;;;;8.10;6.67;;;;;;;;;;5057242;28;20451;-58
2023/01/30 01:29:48;;;;;;;12.57;8.03;;;;;;;;;;5057154;28;20035;-56
2023/01/30 01:32:14;;;;;;;8.43;6.60;;;;;;;;;;5057405;28;20025;-55
2023/01/30 01:34:40;;;;;;;7.30;6.23;;;;;;;;;;5057029;28;20033;-55
2023/01/30 01:37:06;;;;;;;7.90;6.20;;;;;;;;;;5056937;28;20033;-55
2023/01/30 01:42:17;;;;;;;9.17;7.37;;;;;;;;;;5056956;28;20040;-57
2023/01/30 01:45:01;;;;;;;8.97;5.90;;;;;;;;;;5056810;28;20037;-57
2023/01/30 01:47:28;;;;;;;10.27;6.60;;;;;;;;;;5056726;28;20119;-56
2023/01/30 01:49:54;;;;;;;8.27;7.13;;;;;;;;;;5056792;28;20025;-55
2023/01/30 01:52:20;;;;;;;6.63;5.93;;;;;;;;;;5057013;28;20021;-56
2023/01/30 01:54:49;;;;;;;5.83;4.93;;;;;;;;;;5056669;28;20096;-55
2023/01/30 01:57:18;;;;;;;10.43;6.93;;;;;;;;;;5056752;28;20037;-57
2023/01/30 01:59:46;;;;;;;11.73;7.20;;;;;;;;;;5056478;28;20032;-57
2023/01/30 02:02:13;;;;;;;8.60;6.90;;;;;;;;;;5056264;28;20053;-55
2023/01/30 02:05:00;;;;;;;8.10;7.17;;;;;;;;;;5056360;28;20052;-56
2023/01/30 02:07:29;;;;;;;14.33;7.20;;;;;;;;;;5056303;28;20463;-57
2023/01/30 02:09:55;;;;;;;7.97;6.87;;;;;;;;;;5055926;28;20021;-56
2023/01/30 02:12:20;;;;;;;10.23;7.10;;;;;;;;;;5056738;28;20373;-55
2023/01/30 02:14:47;;;;;;;7.07;5.87;;;;;;;;;;5056442;28;20029;-55
2023/01/30 02:17:13;;;;;;;9.93;7.50;;;;;;;;;;5056236;28;20032;-58
2023/01/30 02:20:02;;;;;;;8.30;6.60;;;;;;;;;;5056242;28;20384;-54
2023/01/30 02:22:37;;;;;;;8.07;7.27;;;;;;;;;;5053274;28;20037;-56
2023/01/30 02:25:06;;;;;;;8.77;7.23;;;;;;;;;;5056667;28;20418;-53
2023/01/30 02:27:50;;;;;;;7.33;6.40;;;;;;;;;;5056312;28;20025;-58
2023/01/30 02:30:19;;;;;;;9.70;7.50;;;;;;;;;;5055984;28;20379;-58
2023/01/30 02:33:04;;;;;;;8.40;7.50;;;;;;;;;;5055944;28;20533;-54
2023/01/30 02:35:42;;;;;;;9.87;6.07;;;;;;;;;;5056033;28;20037;-56
2023/01/30 02:38:26;;;;;;;9.67;8.73;;;;;;;;;;5055782;28;20021;-55
2023/01/30 02:41:01;;;;;;;10.23;7.50;;;;;;;;;;5056247;28;20336;-55
2023/01/30 02:43:51;;;;;;;6.77;5.67;;;;;;;;;;5055803;28;20025;-54
2023/01/30 02:46:19;;;;;;;3.95;3.30;;;;;;;;;;5056492;28;20025;-56
2023/01/30 02:48:54;;;;;;;10.50;6.73;;;;;;;;;;5055839;28;20107;-58
2023/01/30 02:51:21;;;;;;;9.03;6.23;;;;;;;;;;5055340;28;20029;-57
2023/01/30 02:53:48;;;;;;;7.30;6.03;;;;;;;;;;5055733;28;20025;-51
2023/01/30 02:56:14;;;;;;;8.37;6.10;;;;;;;;;;5055318;28;20037;-56
2023/01/30 02:58:44;;;;;;;9.40;7.33;;;;;;;;;;5055838;28;20124;-57
2023/01/30 03:01:12;;;;;;;10.63;9.63;;;;;;;;;;5054834;28;20029;-54
2023/01/30 03:03:57;;;;;;;9.30;6.57;;;;;;;;;;5055696;28;20060;-57
2023/01/30 03:06:23;;;;;;;6.67;6.03;;;;;;;;;;5055925;28;20165;-55
2023/01/30 03:08:59;;;;;;;10.37;7.70;;;;;;;;;;5055372;28;20033;-54
2023/01/30 03:11:28;;;;;;;6.47;5.77;;;;;;;;;;5055209;28;20107;-55
2023/01/30 03:13:54;;;;;;;7.07;5.33;;;;;;;;;;5054806;28;20490;-57
2023/01/30 03:16:30;;;;;;;6.70;6.03;;;;;;;;;;5055877;28;20359;-55
2023/01/30 03:18:56;;;;;;;8.27;7.47;;;;;;;;;;5054926;28;20382;-55
2023/01/30 03:21:22;;;;;;;10.70;5.90;;;;;;;;;;5054939;28;20025;-54
2023/01/30 03:23:48;;;;;;;6.87;5.40;;;;;;;;;;5054993;28;20095;-55
2023/01/30 03:26:17;;;;;;;9.10;6.20;;;;;;;;;;5054980;28;20470;-54
2023/01/30 03:28:44;;;;;;;6.50;5.97;;;;;;;;;;5054849;28;20104;-53
2023/01/30 03:31:10;;;;;;;8.33;5.23;;;;;;;;;;5054791;28;20032;-52
2023/01/30 03:33:36;;;;;;;8.57;6.33;;;;;;;;;;5055215;28;20028;-53
2023/01/30 03:36:02;;;;;;;6.40;5.37;;;;;;;;;;5055308;28;20039;-53
2023/01/30 03:38:28;;;;;;;8.83;8.03;;;;;;;;;;5055175;28;20029;-53
2023/01/30 03:40:54;;;;;;;14.13;7.77;;;;;;;;;;5054673;28;20032;-53
2023/01/30 03:43:20;;;;;;;9.30;8.03;;;;;;;;;;5054676;28;20075;-54
2023/01/30 03:45:46;;;;;;;7.63;6.87;;;;;;;;;;5054573;28;20031;-55
2023/01/30 03:48:12;;;;;;;7.57;6.83;;;;;;;;;;5054804;28;20029;-54
2023/01/30 03:50:38;;;;;;;7.77;6.73;;;;;;;;;;5055092;28;20025;-54
2023/01/30 03:53:04;;;;;;;10.73;6.37;;;;;;;;;;5054492;28;20025;-53
2023/01/30 03:55:30;;;;;;;10.67;8.53;;;;;;;;;;5054878;28;20036;-52
2023/01/30 03:57:56;;;;;;;7.07;6.13;;;;;;;;;;5054375;28;20029;-54
2023/01/30 04:00:22;;;;;;;7.07;5.73;;;;;;;;;;5054314;28;20028;-53
2023/01/30 04:02:48;;;;;;;6.87;6.00;;;;;;;;;;5054953;28;20044;-55
2023/01/30 04:05:15;;;;;;;9.17;7.47;;;;;;;;;;5053777;28;20055;-54
2023/01/30 04:07:40;;;;;;;6.63;5.33;;;;;;;;;;5054195;28;20025;-52
2023/01/30 04:10:07;;;;;;;7.67;6.33;;;;;;;;;;5054127;28;20036;-56
2023/01/30 04:12:33;;;;;;;12.97;7.37;;;;;;;;;;5054134;28;20035;-54
2023/01/30 04:14:59;;;;;;;9.03;6.93;;;;;;;;;;5054343;28;20108;-54
2023/01/30 04:17:24;;;;;;;6.90;6.13;;;;;;;;;;5053918;28;20095;-55
2023/01/30 04:19:50;;;;;;;8.97;6.93;;;;;;;;;;5053652;28;20090;-57
2023/01/30 04:22:16;;;;;;;6.10;5.07;;;;;;;;;;5054126;28;20025;-57
2023/01/30 04:24:42;;;;;;;6.93;6.23;;;;;;;;;;5054477;28;20036;-52
2023/01/30 04:27:09;;;;;;;13.00;6.63;;;;;;;;;;5053669;28;20021;-58
2023/01/30 04:29:35;;;;;;;7.57;6.13;;;;;;;;;;5053806;28;20025;-57
2023/01/30 04:32:01;;;;;;;8.60;6.23;;;;;;;;;;5053598;28;20021;-56
2023/01/30 04:34:27;;;;;;;6.83;6.10;;;;;;;;;;5053959;28;20025;-51
2023/01/30 04:36:53;;;;;;;6.93;5.07;;;;;;;;;;5053722;28;20025;-55
2023/01/30 04:39:19;;;;;;;7.93;7.03;;;;;;;;;;5054126;28;20037;-54
2023/01/30 04:41:45;;;;;;;7.27;6.53;;;;;;;;;;5053765;28;20115;-57
2023/01/30 04:44:11;;;;;;;9.27;6.63;;;;;;;;;;5053948;28;20366;-55
2023/01/30 04:46:37;;;;;;;7.87;7.07;;;;;;;;;;5053731;28;20411;-56
2023/01/30 04:49:03;;;;;;;6.87;5.50;;;;;;;;;;5053104;28;20112;-53
2023/01/30 04:51:29;;;;;;;10.77;6.83;;;;;;;;;;5053565;28;20068;-55
2023/01/30 04:53:55;;;;;;;6.33;5.37;;;;;;;;;;5053680;28;20031;-55
2023/01/30 04:56:21;;;;;;;7.97;6.63;;;;;;;;;;5053896;28;20059;-57
2023/01/30 04:58:47;;;;;;;7.73;6.93;;;;;;;;;;5053581;28;20449;-57
2023/01/30 05:01:14;;;;;;;7.40;5.97;;;;;;;;;;5053632;28;20028;-55
2023/01/30 05:03:40;;;;;;;8.63;7.73;;;;;;;;;;5054081;28;20363;-57
2023/01/30 05:06:06;;;;;;;6.97;4.57;;;;;;;;;;5054326;28;20116;-56
2023/01/30 05:08:32;;;;;;;5.83;5.20;;;;;;;;;;5053474;28;20036;-54
2023/01/30 05:10:58;;;;;;;8.93;5.00;;;;;;;;;;5053421;28;20025;-51
2023/01/30 05:13:24;;;;;;;5.93;5.17;;;;;;;;;;5053493;28;20025;-53
2023/01/30 05:15:50;;;;;;;6.53;5.93;;;;;;;;;;5053355;28;20029;-55
2023/01/30 05:18:16;;;;;;;6.00;5.40;;;;;;;;;;5053395;28;20021;-54
2023/01/30 05:20:41;;;;;;;4.77;4.30;;;;;;;;;;5053424;28;20413;-57
2023/01/30 05:23:07;;;;;;;6.60;5.57;;;;;;;;;;5053152;28;20376;-57
2023/01/30 05:25:33;;;;;;;6.10;4.60;;;;;;;;;;5053974;28;20534;-55
2023/01/30 05:27:59;;;;;;;5.90;4.43;;;;;;;;;;5053355;28;20357;-53
2023/01/30 05:30:25;;;;;;;7.23;5.83;;;;;;;;;;5053340;28;20025;-56
2023/01/30 05:32:51;;;;;;;11.20;6.40;;;;;;;;;;5053199;28;20025;-55
2023/01/30 05:35:17;;;;;;;8.73;6.17;;;;;;;;;;5053817;28;20032;-56
2023/01/30 05:37:43;;;;;;;8.43;4.37;;;;;;;;;;5053810;28;20025;-56
2023/01/30 05:40:09;;;;;;;5.87;4.73;;;;;;;;;;5053202;28;20032;-58
2023/01/30 05:42:35;;;;;;;5.57;5.00;;;;;;;;;;5053167;28;20029;-56
2023/01/30 05:45:01;;;;;;;8.93;5.77;;;;;;;;;;5053614;28;20025;-52
2023/01/30 05:47:27;;;;;;;5.27;4.20;;;;;;;;;;5053118;28;20359;-54
2023/01/30 05:49:53;;;;;;;5.30;4.77;;;;;;;;;;5053976;28;20036;-52
2023/01/30 05:52:19;;;;;;;7.13;5.20;;;;;;;;;;5056809;28;20123;-52
2023/01/30 05:54:45;;;;;;;4.77;4.00;;;;;;;;;;5056487;28;20033;-56
2023/01/30 05:57:12;;;;;;;4.73;4.27;;;;;;;;;;5056591;28;20079;-55
2023/01/30 05:59:38;;;;;;;7.13;5.30;;;;;;;;;;5057203;28;20506;-56
2023/01/30 06:02:04;;;;;;;6.10;4.87;;;;;;;;;;5056683;28;20076;-53
2023/01/30 06:04:30;;;;;;;5.77;5.13;;;;;;;;;;5056992;28;20070;-53
2023/01/30 06:06:56;;;;;;;8.23;6.53;;;;;;;;;;5056530;28;20032;-55
2023/01/30 06:09:22;;;;;;;5.17;4.67;;;;;;;;;;5057076;28;20028;-56
2023/01/30 06:11:48;;;;;;;9.27;6.23;;;;;;;;;;5056475;28;20405;-54
2023/01/30 06:14:13;;;;;;;5.50;4.97;;;;;;;;;;5057177;28;20032;-54
2023/01/30 06:16:39;;;;;;;4.43;3.47;;;;;;;;;;5056853;28;20041;-57
2023/01/30 06:19:05;;;;;;;9.80;4.73;;;;;;;;;;5056189;28;20021;-56
2023/01/30 06:21:31;;;;;;;7.17;5.27;;;;;;;;;;5055844;28;20032;-55
2023/01/30 06:23:57;;;;;;;4.50;3.60;;;;;;;;;;5056109;28;20057;-52
2023/01/30 06:26:23;;;;;;;12.10;6.30;;;;;;;;;;5056413;28;20466;-53
2023/01/30 06:28:49;;;;;;;9.90;7.07;;;;;;;;;;5056332;28;20039;-53
2023/01/30 06:31:17;;;;;;;6.90;5.97;;;;;;;;;;5056106;28;20367;-54
2023/01/30 06:33:43;;;;;;;7.47;5.93;;;;;;;;;;5055809;28;20360;-55
2023/01/30 06:36:09;;;;;;;6.13;4.70;;;;;;;;;;5056029;28;20087;-55
2023/01/30 06:38:35;;;;;;;7.53;6.17;;;;;;;;;;5055904;28;20071;-56
2023/01/30 06:41:01;;;;;;;5.60;4.87;;;;;;;;;;5055738;28;20061;-55
2023/01/30 06:43:27;;;;;;;6.63;5.37;;;;;;;;;;5056169;28;20373;-51
2023/01/30 06:45:53;;;;;;;10.23;4.00;;;;;;;;;;5055683;28;20037;-55
2023/01/30 06:48:19;;;;;;;6.27;4.50;;;;;;;;;;5055881;28;20056;-53
2023/01/30 06:50:46;;;;;;;5.67;4.67;;;;;;;;;;5055707;28;20051;-55
2023/01/30 06:53:13;;;;;;;7.00;5.20;;;;;;;;;;5056064;28;20155;-57
2023/01/30 06:55:39;;;;;;;5.93;4.70;;;;;;;;;;5055569;28;20556;-53
2023/01/30 06:58:06;;;;;;;5.10;4.33;;;;;;;;;;5055841;28;20116;-54
2023/01/30 07:00:32;;;;;;;8.03;5.97;;;;;;;;;;5055654;28;20104;-55
2023/01/30 07:02:58;;;;;;;8.40;6.90;;;;;;;;;;5054802;28;20173;-57
2023/01/30 07:05:24;;;;;;;5.03;4.27;;;;;;;;;;5055944;28;20071;-55
2023/01/30 07:07:50;;;;;;;6.93;4.77;;;;;;;;;;5055057;28;20036;-57
2023/01/30 07:10:17;;;;;;;7.40;4.83;;;;;;;;;;5055110;28;20021;-58
2023/01/30 07:12:44;;;;;;;6.47;4.63;;;;;;;;;;5055978;28;20079;-58
2023/01/30 07:15:10;;;;;;;6.73;5.20;;;;;;;;;;5055556;28;20032;-54
2023/01/30 07:17:36;;;;;;;8.03;4.90;;;;;;;;;;5055101;28;20025;-56
2023/01/30 07:20:02;;;;;;;8.87;4.13;;;;;;;;;;5055154;28;20028;-56
2023/01/30 07:22:28;;;;;;;4.87;4.37;;;;;;;;;;5055034;28;20061;-58
2023/01/30 07:24:54;;;;;;;6.80;5.83;;;;;;;;;;5055332;28;20031;-55
2023/01/30 07:27:20;;;;;;;5.57;3.80;;;;;;;;;;5054949;28;20029;-54
2023/01/30 07:29:46;;;;;;;9.20;6.07;;;;;;;;;;5055074;28;20075;-57
2023/01/30 07:32:14;;;;;;;8.53;6.07;;;;;;;;;;5054896;28;20108;-57
2023/01/30 07:34:40;;;;;;;11.70;5.23;;;;;;;;;;5055349;28;20071;-54
2023/01/30 07:37:06;;;;;;;8.47;5.80;;;;;;;;;;5055029;28;20044;-57
2023/01/30 07:39:32;;;;;;;8.07;6.60;;;;;;;;;;5055197;28;20025;-56
2023/01/30 07:42:01;;;;;;;6.73;4.90;;;;;;;;;;5054628;28;20037;-54
2023/01/30 07:44:27;;;;;;;5.33;4.03;;;;;;;;;;5055043;28;20040;-57
2023/01/30 07:46:53;;;;;;;8.50;4.77;;;;;;;;;;5054889;28;20033;-57
2023/01/30 07:49:19;;;;;;;6.40;5.07;;;;;;;;;;5054564;28;20036;-56
2023/01/30 07:51:45;;;;;;;8.10;5.93;;;;;;;;;;5055148;28;20029;-57
2023/01/30 07:54:11;;;;;;;5.20;4.13;;;;;;;;;;5054428;28;20481;-56
2023/01/30 07:56:37;;;;;;;7.90;6.00;;;;;;;;;;5054528;28;20033;-58
2023/01/30 07:59:04;;;;;;;8.00;4.53;;;;;;;;;;5054634;28;20025;-56
2023/01/30 08:01:30;;;;;;;7.57;5.10;;;;;;;;;;5054034;28;20084;-58
2023/01/30 08:03:56;;;;;;;5.00;4.43;;;;;;;;;;5054351;28;20029;-55
2023/01/30 08:06:22;;;;;;;6.17;5.07;;;;;;;;;;5054395;28;20028;-58
2023/01/30 08:08:48;;;;;;;10.87;6.27;;;;;;;;;;5054691;28;20120;-58
2023/01/30 08:11:14;;;;;;;6.83;3.77;;;;;;;;;;5054010;28;20051;-55
2023/01/30 08:13:40;;;;;;;6.90;5.67;;;;;;;;;;5053865;28;20030;-55
2023/01/30 08:16:07;;;;;;;6.10;4.93;;;;;;;;;;5054387;28;20068;-56
2023/01/30 08:18:33;;;;;;;6.47;4.17;;;;;;;;;;5054439;28;20419;-55
2023/01/30 08:21:03;;;;;;;6.10;4.30;;;;;;;;;;5054038;28;20040;-56
2023/01/30 08:23:29;;;;;;;7.00;3.92;;;;;;;;;;5054450;28;20033;-55
2023/01/30 08:25:56;;;;;;;6.63;4.63;;;;;;;;;;5054320;28;20039;-55
2023/01/30 08:28:22;;;;;;;7.70;4.33;;;;;;;;;;5054216;28;20053;-54
2023/01/30 08:30:48;;;;;;;5.90;4.60;;;;;;;;;;5053800;28;20028;-57
2023/01/30 08:33:14;;;;;;;5.57;3.77;;;;;;;;;;5054099;28;20112;-57
2023/01/30 08:35:40;;;;;;;9.03;5.23;;;;;;;;;;5054081;28;20120;-55
2023/01/30 08:38:10;;;;;;;5.57;4.97;;;;;;;;;;5053778;28;20056;-57
2023/01/30 08:40:36;;;;;;;7.90;4.10;;;;;;;;;;5053594;28;20079;-56
2023/01/30 08:43:02;;;;;;;5.60;4.60;;;;;;;;;;5053728;28;20032;-57
2023/01/30 08:45:28;;;;;;;9.27;5.10;;;;;;;;;;5054377;28;20029;-56
2023/01/30 08:47:57;;;;;;;6.90;4.23;;;;;;;;;;5053553;28;20052;-57
2023/01/30 08:50:23;;;;;;;4.77;3.70;;;;;;;;;;5053534;28;20471;-57
2023/01/30 08:52:49;;;;;;;5.90;4.23;;;;;;;;;;5053475;28;20028;-56
2023/01/30 08:55:16;;;;;;;5.77;5.10;;;;;;;;;;5053765;28;20444;-55
2023/01/30 08:57:42;;;;;;;7.43;5.10;;;;;;;;;;5053166;28;20387;-56
2023/01/30 09:00:08;;;;;;;7.83;4.43;;;;;;;;;;5053435;28;20037;-57
2023/01/30 09:02:34;;;;;;;4.87;3.50;;;;;;;;;;5053819;28;20543;-58
2023/01/30 09:05:00;;;;;;;6.50;4.77;;;;;;;;;;5053325;28;20061;-58
2023/01/30 09:07:27;;;;;;;8.23;4.23;;;;;;;;;;5053515;28;20462;-57
2023/01/30 09:09:53;;;;;;;5.27;4.40;;;;;;;;;;5053676;28;20029;-57
2023/01/30 09:12:19;;;;;;;5.73;3.97;;;;;;;;;;5053610;28;20036;-54
2023/01/30 09:14:45;;;;;;;5.13;2.83;;;;;;;;;;5053870;28;20029;-55
2023/01/30 09:17:11;;;;;;;7.87;4.60;;;;;;;;;;5053861;28;20060;-57
2023/01/30 09:19:37;;;;;;;4.63;3.00;;;;;;;;;;5053212;28;20406;-58
2023/01/30 09:22:03;;;;;;;3.67;2.73;;;;;;;;;;5053335;28;20021;-57
2023/01/30 09:24:29;;;;;;;5.27;3.37;;;;;;;;;;5053789;28;20032;-55
2023/01/30 09:26:57;;;;;;;5.03;3.90;;;;;;;;;;5057324;28;20037;-55
2023/01/30 09:29:23;;;;;;;3.67;3.00;;;;;;;;;;5057105;28;20100;-58
2023/01/30 09:31:49;;;;;;;4.87;3.63;;;;;;;;;;5057160;28;20048;-55
2023/01/30 09:34:15;;;;;;;6.73;4.87;;;;;;;;;;5057343;28;20451;-57
2023/01/30 09:36:42;;;;;;;5.90;3.80;;;;;;;;;;5056983;28;20557;-58
2023/01/30 09:39:08;;;;;;;4.60;3.23;;;;;;;;;;5057380;28;20020;-58
2023/01/30 09:41:46;;;;;;;6.07;4.57;;;;;;;;;;5056969;28;20029;-58
2023/01/30 09:44:19;;;;;;;5.73;3.50;;;;;;;;;;5057089;28;20375;-59
2023/01/30 09:46:52;;;;;;;7.50;4.37;;;;;;;;;;5056458;28;20039;-57
2023/01/30 09:49:26;;;;;;;3.83;2.23;;;;;;;;;;5057432;28;20037;-57
2023/01/30 09:52:03;;;;;;;4.13;2.70;;;;;;;;;;5057313;28;20478;-54
2023/01/30 09:54:30;;;;;;;4.37;3.47;;;;;;;;;;5056697;28;20379;-54
2023/01/30 09:56:57;;;;;;;4.23;3.50;;;;;;;;;;5056891;28;20033;-57
2023/01/30 09:59:29;;;;;;;4.27;3.13;;;;;;;;;;5056041;28;20486;-57
2023/01/30 10:02:04;;;;;;;4.23;2.23;;;;;;;;;;5056732;28;20540;-56
2023/01/30 10:04:33;;;;;;;5.77;2.87;;;;;;;;;;5056349;28;20485;-57
2023/01/30 10:07:18;;;;;;;4.43;3.42;;;;;;;;;;5056581;28;20115;-57
2023/01/30 10:10:09;;;;;;;2.50;1.83;;;;;;;;;;5056438;28;20029;-57
2023/01/30 10:12:47;;;;;;;2.00;1.67;;;;;;;;;;5053825;28;20044;-55
2023/01/30 10:15:13;;;;;;;3.13;2.83;;;;;;;;;;5056607;28;20021;-57
2023/01/30 10:17:58;;;;;;;5.50;3.33;;;;;;;;;;5056288;28;20032;-56
2023/01/30 10:20:31;;;;;;;5.80;3.63;;;;;;;;;;5056116;28;20078;-54
2023/01/30 10:22:57;;;;;;;4.13;2.87;;;;;;;;;;5057052;28;20029;-54
2023/01/30 10:25:30;;;;;;;6.70;2.43;;;;;;;;;;5056551;28;20032;-57
2023/01/30 10:28:03;;;;;;;3.50;2.77;;;;;;;;;;5056465;28;20029;-53
2023/01/30 10:30:29;;;;;;;5.30;3.80;;;;;;;;;;5056521;28;20431;-57
2023/01/30 10:33:01;;;;;;;5.23;3.47;;;;;;;;;;5056751;28;20111;-57
2023/01/30 10:35:37;;;;;;;4.83;2.87;;;;;;;;;;5056083;28;20029;-57
2023/01/30 10:38:12;;;;;;;3.83;2.87;;;;;;;;;;5055967;28;20116;-56
2023/01/30 10:40:58;;;;;;;4.03;2.33;;;;;;;;;;5055810;28;20076;-57
2023/01/30 10:43:29;;;;;;;4.43;2.67;;;;;;;;;;5052533;28;20469;-57
2023/01/30 10:45:55;;;;;;;4.05;2.25;;;;;;;;;;5056078;28;20336;-55
2023/01/30 10:48:24;;;;;;;2.57;1.77;;;;;;;;;;5055376;28;20021;-56
2023/01/30 10:50:53;;;;;;;2.97;2.27;;;;;;;;;;5055669;28;20029;-55
2023/01/30 10:53:21;;;;;;;2.27;1.37;;;;;;;;;;5055995;28;20467;-56
2023/01/30 10:55:50;;;;;;;4.27;2.37;;;;;;;;;;5055897;28;20029;-55
2023/01/30 10:58:31;;;;;;;2.77;1.50;;;;;;;;;;5055268;28;20029;-57
2023/01/30 11:01:00;;;;;;;3.30;2.30;;;;;;;;;;5055392;28;20103;-56
2023/01/30 11:03:37;;;;;;;5.43;2.80;;;;;;;;;;5055344;28;20380;-57
2023/01/30 11:06:08;;;;;;;2.67;1.57;;;;;;;;;;5055785;28;20037;-57
2023/01/30 11:08:35;;;;;;;2.83;1.57;;;;;;;;;;5055503;28;20112;-57
2023/01/30 11:11:01;;;;;;;4.07;1.87;;;;;;;;;;5055614;28;20025;-56
2023/01/30 11:13:29;;;;;;;4.37;1.77;;;;;;;;;;5055894;28;20025;-56
2023/01/30 11:15:56;;;;;;;2.17;1.10;;;;;;;;;;5055165;28;20109;-57
2023/01/30 11:18:22;;;;;;;4.40;2.10;;;;;;;;;;5055152;28;20466;-57
2023/01/30 11:21:08;;;;;;;4.53;2.38;;;;;;;;;;5055678;28;20060;-57
2023/01/30 11:23:41;;;;;;;2.23;1.67;;;;;;;;;;5055645;28;20021;-56
2023/01/30 11:26:15;;;;;;;3.67;2.53;;;;;;;;;;5055438;28;20029;-57
2023/01/30 11:28:41;;;;;;;2.83;2.00;;;;;;;;;;5055358;28;20052;-56
2023/01/30 11:31:18;;;;;;;2.67;2.10;;;;;;;;;;5055455;28;20029;-56
2023/01/30 11:33:45;;;;;;;4.87;2.37;;;;;;;;;;5055027;28;20418;-57
2023/01/30 11:36:25;;;;;;;2.93;1.87;;;;;;;;;;5055157;28;20037;-57
2023/01/30 11:39:02;;;;;;;2.78;1.85;;;;;;;;;;5054779;28;20029;-55
2023/01/30 11:41:28;;;;;;;2.57;1.83;;;;;;;;;;5055560;28;20033;-56
2023/01/30 11:44:02;;;;;;;4.20;2.07;;;;;;;;;;5055018;28;20025;-55
2023/01/30 11:46:31;;;;;;;3.10;1.90;;;;;;;;;;5055055;28;20026;-58
2023/01/30 11:49:04;;;;;;;6.00;2.73;;;;;;;;;;5054091;28;20556;-57
2023/01/30 11:51:33;;;;;;;3.80;2.73;;;;;;;;;;5055066;28;20021;-57
2023/01/30 11:54:03;;;;;;;3.90;2.53;;;;;;;;;;5055034;28;20518;-56
2023/01/30 11:56:29;;;;;;;;;;;;;;;;;;5055012;28;20170;-57
2023/01/30 11:59:01;;;;;;;5.37;2.97;;;;;;;;;;5054689;28;19958;-55
2023/01/30 12:01:28;;;;;;;3.67;2.47;;;;;;;;;;5054197;28;20402;-55
2023/01/30 12:03:55;;;;;;;2.67;2.07;;;;;;;;;;5054934;28;20021;-57
2023/01/30 12:06:22;;;;;;;4.77;3.07;;;;;;;;;;5054646;28;20100;-57
2023/01/30 12:08:51;;;;;;;2.10;1.57;;;;;;;;;;5054193;28;20033;-57
2023/01/30 12:11:36;;;;;;;3.37;2.00;;;;;;;;;;5054222;28;20033;-56
2023/01/30 12:14:23;;;;;;;3.40;2.47;;;;;;;;;;5054069;28;20048;-57
2023/01/30 12:16:52;;;;;;;4.03;1.73;;;;;;;;;;5054369;28;20032;-56
2023/01/30 12:19:27;;;;;;;2.00;1.20;;;;;;;;;;5054043;28;20025;-56
2023/01/30 12:21:59;;;;;;;2.67;1.80;;;;;;;;;;5054034;28;20025;-57
2023/01/30 12:24:39;;;;;;;3.27;1.90;;;;;;;;;;5054035;28;20029;-57
2023/01/30 12:27:09;;;;;;;2.45;1.77;;;;;;;;;;5054532;28;20474;-57
2023/01/30 12:29:50;;;;;;;2.00;1.48;;;;;;;;;;5054200;28;20021;-55
2023/01/30 12:32:22;;;;;;;3.03;1.87;;;;;;;;;;5054114;28;20025;-57
2023/01/30 12:34:49;;;;;;;4.53;2.93;;;;;;;;;;5053703;28;20029;-55
2023/01/30 12:37:32;;;;;;;2.80;1.93;;;;;;;;;;5054292;28;20485;-52
2023/01/30 12:40:04;;;;;;;4.10;2.87;;;;;;;;;;5053989;28;20032;-56
2023/01/30 12:42:30;;;;;;;5.03;2.80;;;;;;;;;;5053523;28;20021;-56
2023/01/30 12:44:56;;;;;;;2.30;1.50;;;;;;;;;;5053998;28;20021;-54
2023/01/30 12:47:25;;;;;;;3.43;2.13;;;;;;;;;;5053570;28;20033;-55
2023/01/30 12:49:55;;;;;;;3.77;2.33;;;;;;;;;;5053968;28;20055;-53
2023/01/30 12:52:41;;;;;;;6.95;3.03;;;;;;;;;;5054252;28;20336;-56
2023/01/30 12:55:18;;;;;;;3.37;2.83;;;;;;;;;;5053849;28;20070;-55
2023/01/30 12:57:44;;;;;;;3.63;2.57;;;;;;;;;;5054255;28;20348;-56
2023/01/30 13:00:16;;;;;;;5.73;2.53;;;;;;;;;;5055616;28;20025;-54
2023/01/30 13:02:47;;;;;;;4.57;3.00;;;;;;;;;;5058122;28;20083;-56
2023/01/30 13:05:27;;;;;;;4.17;2.10;;;;;;;;;;5058320;28;20028;-58
2023/01/30 13:07:59;;;;;;;2.75;1.98;;;;;;;;;;5058038;28;20075;-54
2023/01/30 13:10:44;;;;;;;4.70;2.83;;;;;;;;;;5057905;28;20025;-54
2023/01/30 13:13:10;;;;;;;3.60;2.40;;;;;;;;;;5057942;28;20362;-55
2023/01/30 13:15:42;;;;;;;3.37;2.07;;;;;;;;;;5058033;28;20040;-56
2023/01/30 13:18:19;;;;;;;3.00;2.23;;;;;;;;;;5058064;28;20029;-57
2023/01/30 13:20:45;;;;;;;4.17;3.23;;;;;;;;;;5057463;28;20047;-57
2023/01/30 13:23:20;;;;;;;4.30;2.23;;;;;;;;;;5057368;28;20442;-55
2023/01/30 13:25:54;;;;;;;4.57;3.07;;;;;;;;;;5057114;28;20367;-57
2023/01/30 13:28:25;;;;;;;4.50;3.33;;;;;;;;;;5057597;28;20490;-57
2023/01/30 13:30:52;;;;;;;3.43;2.23;;;;;;;;;;5057279;28;20029;-57
2023/01/30 13:33:30;;;;;;;5.00;3.47;;;;;;;;;;5056976;28;20037;-58
2023/01/30 13:36:03;;;;;;;7.63;3.07;;;;;;;;;;5057320;28;20036;-58
2023/01/30 13:38:29;;;;;;;3.17;2.37;;;;;;;;;;5057223;28;20090;-55
2023/01/30 13:40:57;;;;;;;4.77;3.10;;;;;;;;;;5057060;28;20363;-55
2023/01/30 13:43:25;;;;;;;2.70;1.77;;;;;;;;;;5056759;28;20087;-57
2023/01/30 13:45:52;;;;;;;5.53;3.00;;;;;;;;;;5057299;28;20106;-57
2023/01/30 13:48:33;;;;;;;7.20;3.90;;;;;;;;;;5056957;28;20036;-55
2023/01/30 13:50:59;;;;;;;;;;;;;;;;;;5057714;28;20028;-56
2023/01/30 13:53:35;;;;;;;4.23;2.80;;;;;;;;;;5056821;28;19912;-58
2023/01/30 13:56:16;;;;;;;3.20;1.97;;;;;;;;;;5056791;28;20028;-57
2023/01/30 13:59:01;;;;;;;3.73;2.80;;;;;;;;;;5055445;28;20025;-57
2023/01/30 14:01:48;;;;;;;5.17;3.43;;;;;;;;;;5056391;28;20041;-59
2023/01/30 14:04:33;;;;;;;4.53;3.30;;;;;;;;;;5056753;28;20021;-58
2023/01/30 14:07:08;;;;;;;3.13;2.73;;;;;;;;;;5056522;28;20478;-60
2023/01/30 14:09:36;;;;;;;3.40;2.97;;;;;;;;;;5056404;28;20033;-59
2023/01/30 14:12:02;;;;;;;5.37;3.50;;;;;;;;;;5055906;28;20021;-59
2023/01/30 14:14:35;;;;;;;8.43;5.00;;;;;;;;;;5056536;28;20063;-59
2023/01/30 14:17:14;;;;;;;5.00;2.53;;;;;;;;;;5056538;28;20134;-59
2023/01/30 14:20:00;;;;;;;5.07;2.57;;;;;;;;;;5056812;28;20025;-59
2023/01/30 14:22:34;;;;;;;5.97;3.60;;;;;;;;;;5057013;28;20044;-58
2023/01/30 14:25:19;;;;;;;7.07;3.97;;;;;;;;;;5056694;28;20114;-58
2023/01/30 14:27:44;;;;;;;7.23;3.43;;;;;;;;;;5056244;28;20024;-58
2023/01/30 14:30:33;;;;;;;4.90;2.77;;;;;;;;;;5056379;28;20151;-59
2023/01/30 14:33:01;;;;;;;4.37;2.37;;;;;;;;;;5054136;28;20037;-59
2023/01/30 14:35:31;;;;;;;5.27;2.67;;;;;;;;;;5056562;28;20048;-58
2023/01/30 14:38:05;;;;;;;2.97;2.15;;;;;;;;;;5056349;28;20028;-59
2023/01/30 14:40:33;;;;;;;3.03;1.87;;;;;;;;;;5056214;28;20032;-58
2023/01/30 14:43:11;;;;;;;3.17;2.70;;;;;;;;;;5055870;28;20032;-59
2023/01/30 14:45:49;;;;;;;3.07;2.53;;;;;;;;;;5055610;28;20487;-59
2023/01/30 14:48:34;;;;;;;4.40;2.73;;;;;;;;;;5056252;28;20029;-59
2023/01/30 14:51:12;;;;;;;4.70;3.30;;;;;;;;;;5055696;28;20033;-59
2023/01/30 14:53:50;;;;;;;3.43;2.67;;;;;;;;;;5055890;28;20067;-59
2023/01/30 14:56:16;;;;;;;6.67;3.87;;;;;;;;;;5055700;28;20021;-59
2023/01/30 14:58:54;;;;;;;6.37;2.63;;;;;;;;;;5055426;28;20039;-59
2023/01/30 15:01:20;;;;;;;6.20;3.63;;;;;;;;;;5055425;28;20106;-59
2023/01/30 15:03:48;;;;;;;4.40;2.50;;;;;;;;;;5055789;28;20029;-59